createdAt,value
2024-01-18T00:07:07.056Z,7.88
2024-01-18T00:17:28.098Z,6.13
2024-01-18T00:27:48.789Z,6.28
2024-01-18T00:38:09.621Z,4.82
2024-01-18T00:48:30.698Z,5.60
2024-01-18T00:58:51.752Z,4.90
2024-01-18T01:09:13.053Z,5.60
2024-01-18T01:19:33.680Z,3.65
2024-01-18T01:29:54.551Z,4.65
2024-01-18T01:40:15.456Z,2.25
2024-01-18T01:50:37.287Z,2.65
2024-01-18T02:00:58.230Z,2.33
2024-01-18T02:11:19.141Z,1.48
2024-01-18T02:21:40.594Z,1.17
2024-01-18T02:32:01.246Z,1.73
2024-01-18T02:42:22.508Z,4.00
2024-01-18T02:52:43.560Z,1.60
2024-01-18T03:03:04.727Z,12.48
2024-01-18T03:13:25.713Z,16.83
2024-01-18T03:23:46.330Z,20.50
2024-01-18T03:34:07.254Z,40.22
2024-01-18T03:44:27.941Z,50.28
2024-01-18T03:54:49.342Z,50.92
2024-01-18T04:05:10.476Z,49.72
2024-01-18T04:15:31.551Z,40.78
2024-01-18T04:25:53.218Z,35.95
2024-01-18T04:36:14.162Z,25.92
2024-01-18T04:46:35.046Z,29.10
2024-01-18T04:56:56.237Z,27.27
2024-01-18T05:07:17.432Z,32.65
2024-01-18T05:17:40.636Z,37.92
2024-01-18T05:28:01.848Z,36.95
2024-01-18T05:38:22.868Z,36.83
2024-01-18T05:48:43.957Z,37.03
2024-01-18T05:59:04.752Z,34.95
2024-01-18T06:09:25.928Z,37.13
2024-01-18T06:19:46.759Z,29.40
2024-01-18T06:30:12.053Z,32.50
2024-01-18T06:40:33.238Z,19.48
2024-01-18T06:50:54.263Z,16.95
2024-01-18T07:01:15.204Z,20.80
2024-01-18T07:11:39.644Z,19.13
2024-01-18T07:22:00.396Z,22.58
2024-01-18T07:32:21.343Z,15.82
2024-01-18T07:42:42.183Z,10.80
2024-01-18T07:53:03.365Z,16.65
2024-01-18T08:03:24.751Z,17.20
2024-01-18T08:13:45.917Z,18.13
2024-01-18T08:24:07.321Z,17.25
2024-01-18T08:34:28.412Z,21.55
2024-01-18T08:44:49.340Z,20.42
2024-01-18T08:55:10.494Z,18.17
2024-01-18T09:05:31.609Z,16.00
2024-01-18T09:15:53.077Z,14.07
2024-01-18T09:26:14.232Z,14.70
2024-01-18T09:36:35.311Z,15.43
2024-01-18T09:46:57.457Z,13.40
2024-01-18T09:57:31.383Z,15.30
2024-01-18T10:07:53.585Z,14.63
2024-01-18T10:18:14.917Z,13.57
2024-01-18T10:28:37.329Z,11.05
2024-01-18T10:38:58.217Z,12.55
2024-01-18T10:49:19.346Z,12.15
2024-01-18T10:59:40.606Z,10.48
2024-01-18T11:10:02.459Z,12.57
2024-01-18T11:20:23.184Z,7.07
2024-01-18T11:30:48.804Z,5.97
2024-01-18T11:41:11.196Z,5.65
2024-01-18T11:51:33.159Z,6.90
2024-01-18T12:01:55.855Z,8.02
2024-01-18T12:12:18.103Z,7.03
2024-01-18T12:22:39.139Z,6.07
2024-01-18T12:33:00.171Z,6.30
2024-01-18T12:43:21.533Z,5.57
2024-01-18T12:53:42.548Z,6.15
2024-01-18T13:04:39.533Z,8.52
2024-01-18T13:15:01.247Z,9.13
2024-01-18T13:25:22.051Z,5.30
2024-01-18T13:35:43.091Z,5.88
2024-01-18T13:46:04.225Z,10.02
2024-01-18T13:56:25.347Z,6.28
2024-01-18T14:06:46.252Z,13.55
2024-01-18T14:17:08.253Z,6.45
2024-01-18T14:27:29.105Z,6.65
2024-01-18T14:37:50.026Z,10.27
2024-01-18T14:48:16.442Z,10.18
2024-01-18T14:58:37.714Z,5.80
2024-01-18T15:08:58.482Z,5.13
2024-01-18T15:19:19.534Z,5.20
2024-01-18T15:29:42.548Z,7.82
2024-01-18T15:40:04.327Z,6.15
2024-01-18T15:50:24.942Z,5.80
2024-01-18T16:00:45.848Z,11.30
2024-01-18T16:11:08.208Z,13.13
2024-01-18T16:21:29.246Z,12.10
2024-01-18T16:31:50.061Z,13.25
2024-01-18T16:42:11.129Z,11.30
2024-01-18T16:52:31.958Z,11.40
2024-01-18T17:02:52.778Z,12.10
2024-01-18T17:13:13.576Z,14.23
2024-01-18T17:23:34.441Z,13.68
2024-01-18T17:33:55.486Z,11.75
2024-01-18T17:44:16.536Z,15.40
2024-01-18T17:54:38.720Z,10.45
2024-01-18T18:04:59.894Z,10.07
2024-01-18T18:15:21.111Z,13.40
2024-01-18T18:25:42.263Z,9.95
2024-01-18T18:36:04.026Z,10.80
2024-01-18T18:46:25.138Z,9.45
2024-01-18T18:56:45.962Z,6.10
2024-01-18T19:07:06.944Z,8.75
2024-01-18T19:17:28.096Z,8.75
2024-01-18T19:27:48.728Z,7.45
2024-01-18T19:38:09.699Z,8.82
2024-01-18T19:48:30.581Z,8.40
2024-01-18T19:58:51.444Z,9.85
2024-01-18T20:09:12.704Z,13.13
2024-01-18T20:19:33.847Z,6.53
2024-01-18T20:29:55.511Z,12.98
2024-01-18T20:40:16.203Z,18.00
2024-01-18T20:50:37.195Z,10.30
2024-01-18T21:01:00.186Z,11.30
2024-01-18T21:11:21.081Z,10.98
2024-01-18T21:21:41.990Z,14.52
2024-01-18T21:32:03.217Z,13.27
2024-01-18T21:42:24.095Z,7.55
2024-01-18T21:52:45.489Z,11.20
2024-01-18T22:03:07.014Z,12.70
2024-01-18T22:13:27.753Z,10.05
2024-01-18T22:23:48.636Z,7.28
2024-01-18T22:34:09.779Z,15.48
2024-01-18T22:44:31.080Z,8.73
2024-01-18T22:54:51.830Z,10.70
2024-01-18T23:05:12.795Z,10.07
2024-01-18T23:15:33.791Z,7.88
2024-01-18T23:25:58.729Z,11.00
2024-01-18T23:36:20.477Z,9.10
2024-01-18T23:46:44.875Z,10.00
2024-01-18T23:57:05.922Z,13.65
